Memphis, Tennessee
Current Conditions -  °F | °C
As of 2:54 PM on Tuesday 21 Oct 2014 (Local Time) from KMEM Reporting Station
Clear Clear  
Wind Chill: 76°   Ceiling: Unl
Heat Index: 76°   Visibility: 10mi
Dew Point: 45°   Wind: 9mph
Humidity: 33%   Direction: 10°N
Pressure: 30.05"   Gusts: NA
Location:  35.15°N, 90.05°W
Report Text: KMEM 211954Z 01008KT 10SM CLR 24/07 A3005 RMK AO2 SLP175 T02440072 $
Loading
Personal Weather Stations






























Interactive Weather Map New forecast layout! Learn more

10-Day Weather Forecast

Advertisements
Track Severe Weather on mobile